Time;durP1;ratioP1;P1;durP2;ratioP2;P2;SDS_P1;SDS_P2;PMS_P1;PMS_P2;Temp;Humidity;BMP_temperature;BMP_pressure;BME280_temperature;BME280_humidity;BME280_pressure;Samples;Min_cycle;Max_cycle;Signal;HPM_P1;HPM_P2
2022/03/28 00:01:50;;;;;;;41.55;28.02;;;15.90;1.50;;;;;;4974703;28;20384;-39
2022/03/28 00:04:15;;;;;;;39.63;27.90;;;16.00;1.00;;;;;;4975510;28;20030;-39
2022/03/28 00:06:41;;;;;;;41.85;28.33;;;15.90;1.50;;;;;;4973778;28;20035;-39
2022/03/28 00:09:07;;;;;;;36.33;27.73;;;15.90;1.20;;;;;;4974800;28;20043;-39
2022/03/28 00:11:33;;;;;;;44.92;29.83;;;15.90;1.40;;;;;;4974108;28;20038;-39
2022/03/28 00:13:59;;;;;;;37.67;25.95;;;15.90;1.00;;;;;;4975424;28;20034;-39
2022/03/28 00:16:25;;;;;;;35.45;24.83;;;15.80;1.30;;;;;;4974902;28;20078;-40
2022/03/28 00:18:50;;;;;;;40.58;27.13;;;15.80;1.00;;;;;;4975232;28;20066;-39
2022/03/28 00:21:16;;;;;;;43.38;28.02;;;15.80;1.00;;;;;;4975263;28;20026;-39
2022/03/28 00:23:42;;;;;;;42.70;26.92;;;15.70;1.40;;;;;;4974150;28;20399;-39
2022/03/28 00:26:08;;;;;;;38.20;27.23;;;15.80;1.00;;;;;;4974456;28;20019;-39
2022/03/28 00:28:33;;;;;;;39.00;26.02;;;15.70;1.00;;;;;;4973917;28;20047;-39
2022/03/28 00:30:59;;;;;;;39.25;26.90;;;15.80;1.00;;;;;;4975108;28;20074;-39
2022/03/28 00:33:25;;;;;;;36.75;26.83;;;15.70;1.30;;;;;;4973311;28;20055;-39
2022/03/28 00:35:50;;;;;;;39.67;26.30;;;15.70;1.00;;;;;;4973114;28;20030;-39
2022/03/28 00:38:16;;;;;;;35.22;25.42;;;15.70;1.20;;;;;;4973506;28;20039;-39
2022/03/28 00:40:42;;;;;;;38.03;26.13;;;15.70;1.30;;;;;;4973153;28;20037;-39
2022/03/28 00:43:09;;;;;;;42.30;27.70;;;15.70;1.50;;;;;;4973897;28;20424;-39
2022/03/28 00:45:37;;;;;;;39.30;26.70;;;15.70;1.40;;;;;;4973674;28;20437;-39
2022/03/28 00:48:04;;;;;;;39.60;25.92;;;15.70;1.50;;;;;;4973082;28;20708;-39
2022/03/28 00:50:30;;;;;;;37.78;25.58;;;15.70;2.10;;;;;;4974073;28;20026;-39
2022/03/28 00:52:57;;;;;;;44.70;27.17;;;15.80;1.20;;;;;;4973920;28;20034;-39
2022/03/28 00:55:23;;;;;;;43.38;28.02;;;15.70;1.20;;;;;;4974105;28;20023;-39
2022/03/28 00:57:49;;;;;;;43.00;28.63;;;15.70;1.00;;;;;;4974584;28;20073;-40
2022/03/28 01:00:16;;;;;;;48.45;29.83;;;15.60;1.00;;;;;;4974108;28;20030;-40
2022/03/28 01:02:41;;;;;;;40.13;27.55;;;15.50;1.00;;;;;;4974379;28;20026;-39
2022/03/28 01:05:08;;;;;;;46.75;28.92;;;15.50;1.10;;;;;;4974572;28;20030;-39
2022/03/28 01:07:34;;;;;;;42.80;28.73;;;15.60;1.00;;;;;;4969692;28;20377;-39
2022/03/28 01:10:00;;;;;;;37.42;27.35;;;15.50;1.40;;;;;;4974261;28;20031;-38
2022/03/28 01:12:27;;;;;;;47.13;29.02;;;15.40;1.20;;;;;;4968878;28;20077;-38
2022/03/28 01:14:55;;;;;;;50.97;28.75;;;15.40;1.00;;;;;;4970839;28;20031;-38
2022/03/28 01:20:06;;;;;;;42.03;29.30;;;15.30;1.30;;;;;;4973558;28;20046;-38
2022/03/28 01:22:32;;;;;;;48.03;29.23;;;15.30;1.40;;;;;;4972476;28;20285;-38
2022/03/28 01:25:06;;;;;;;40.05;29.25;;;15.30;1.60;;;;;;4973624;28;20027;-39
2022/03/28 01:27:33;;;;;;;41.10;27.80;;;15.20;1.00;;;;;;4972261;28;20102;-38
2022/03/28 01:29:59;;;;;;;41.55;28.88;;;15.30;1.00;;;;;;4973263;28;20189;-38
2022/03/28 01:32:25;;;;;;;41.88;29.90;;;15.20;1.00;;;;;;4973232;28;20038;-39
2022/03/28 01:34:51;;;;;;;40.00;28.42;;;15.20;1.00;;;;;;4973839;28;20061;-39
2022/03/28 01:37:16;;;;;;;39.60;29.40;;;15.20;1.00;;;;;;4973182;28;20035;-38
2022/03/28 01:39:42;;;;;;;40.72;28.38;;;15.10;1.00;;;;;;4973878;28;20401;-39
2022/03/28 01:42:08;;;;;;;40.83;27.65;;;15.10;1.00;;;;;;4955824;28;20038;-39
2022/03/28 01:44:34;;;;;;;36.45;27.05;;;15.10;1.00;;;;;;4973847;28;20061;-39
2022/03/28 01:46:59;;;;;;;41.92;28.55;;;15.00;1.00;;;;;;4973314;28;20059;-38
2022/03/28 01:49:25;;;;;;;35.78;26.65;;;15.10;1.00;;;;;;4973116;28;20046;-38
2022/03/28 01:51:51;;;;;;;36.00;25.77;;;14.90;1.00;;;;;;4973365;28;20031;-38
2022/03/28 01:54:17;;;;;;;38.22;26.88;;;15.00;1.00;;;;;;4973673;28;20069;-39
2022/03/28 01:56:44;;;;;;;37.50;25.63;;;15.00;1.00;;;;;;4972963;28;20027;-39
2022/03/28 01:59:10;;;;;;;40.08;27.58;;;14.90;1.00;;;;;;4973310;28;20067;-39
2022/03/28 02:01:37;;;;;;;34.72;25.40;;;14.90;1.00;;;;;;4972017;28;20115;-39
2022/03/28 02:04:03;;;;;;;34.03;25.33;;;15.00;1.00;;;;;;4972637;28;20166;-39
2022/03/28 02:06:29;;;;;;;35.03;25.63;;;14.70;1.00;;;;;;4971691;28;20026;-38
2022/03/28 02:08:55;;;;;;;35.83;25.13;;;14.80;1.00;;;;;;4973616;28;20039;-38
2022/03/28 02:11:20;;;;;;;33.35;25.08;;;14.80;1.00;;;;;;4972734;28;20023;-38
2022/03/28 02:13:46;;;;;;;35.05;24.58;;;14.80;1.00;;;;;;4973329;28;20437;-38
2022/03/28 02:16:12;;;;;;;34.97;24.75;;;14.70;1.00;;;;;;4972716;28;20034;-38
2022/03/28 02:18:38;;;;;;;35.90;25.48;;;14.80;1.00;;;;;;4973283;28;20039;-38
2022/03/28 02:21:04;;;;;;;33.47;24.65;;;14.70;1.00;;;;;;4972582;28;20504;-38
2022/03/28 02:23:30;;;;;;;33.22;25.00;;;14.70;1.00;;;;;;4972477;28;20038;-38
2022/03/28 02:25:56;;;;;;;30.85;23.70;;;14.70;1.00;;;;;;4971819;28;20054;-38
2022/03/28 02:28:22;;;;;;;30.83;24.33;;;14.70;1.00;;;;;;4972962;28;20114;-38
2022/03/28 02:30:48;;;;;;;32.88;24.80;;;14.60;1.00;;;;;;4972376;28;20089;-38
2022/03/28 02:33:14;;;;;;;33.15;23.83;;;14.60;1.00;;;;;;4971951;28;20051;-38
2022/03/28 02:35:40;;;;;;;34.72;25.52;;;14.60;1.00;;;;;;4971572;28;20114;-38
2022/03/28 02:38:07;;;;;;;36.83;25.13;;;14.60;1.00;;;;;;4973044;28;20404;-39
2022/03/28 02:40:32;;;;;;;32.78;23.33;;;14.50;1.00;;;;;;4972346;28;20090;-38
2022/03/28 02:42:59;;;;;;;33.00;23.75;;;14.40;1.00;;;;;;4972793;28;20066;-38
2022/03/28 02:45:30;;;;;;;31.83;23.23;;;14.50;1.00;;;;;;4973055;28;20027;-39
2022/03/28 02:47:56;;;;;;;34.17;23.38;;;14.50;1.00;;;;;;4972662;28;20058;-38
2022/03/28 02:50:22;;;;;;;33.97;23.40;;;14.50;1.00;;;;;;4972990;28;20044;-38
2022/03/28 02:52:48;;;;;;;28.80;22.98;;;14.50;1.00;;;;;;4972275;28;20034;-38
2022/03/28 02:55:15;;;;;;;29.50;22.48;;;14.30;1.00;;;;;;4972906;28;20041;-39
2022/03/28 02:57:41;;;;;;;33.40;23.25;;;14.40;1.00;;;;;;4971901;28;20085;-38
2022/03/28 03:00:08;;;;;;;28.70;22.38;;;14.50;1.00;;;;;;4973208;28;20114;-38
2022/03/28 03:02:35;;;;;;;31.30;22.80;;;14.40;1.00;;;;;;4972148;28;20034;-38
2022/03/28 03:05:01;;;;;;;27.58;21.35;;;14.30;1.00;;;;;;4972107;28;20038;-38
2022/03/28 03:07:26;;;;;;;30.25;22.40;;;14.30;1.00;;;;;;4972027;28;20027;-38
2022/03/28 03:09:53;;;;;;;29.15;22.40;;;14.20;1.00;;;;;;4972754;28;20111;-38
2022/03/28 03:12:19;;;;;;;28.00;22.17;;;14.30;1.00;;;;;;4971877;28;20484;-39
2022/03/28 03:14:45;;;;;;;32.67;23.20;;;14.20;1.00;;;;;;4972665;28;20109;-39
2022/03/28 03:17:10;;;;;;;30.17;21.80;;;14.20;1.00;;;;;;4975432;28;20082;-39
2022/03/28 03:19:38;;;;;;;27.98;20.35;;;14.20;1.00;;;;;;4976391;28;20124;-39
2022/03/28 03:22:04;;;;;;;28.98;20.73;;;14.30;1.00;;;;;;4975767;28;20049;-39
2022/03/28 03:24:31;;;;;;;26.98;21.05;;;14.30;1.00;;;;;;4976410;28;20473;-39
2022/03/28 03:26:57;;;;;;;29.55;20.60;;;14.20;1.00;;;;;;4975899;28;20034;-39
2022/03/28 03:29:23;;;;;;;30.85;20.58;;;14.20;1.00;;;;;;4975863;28;20125;-39
2022/03/28 03:31:49;;;;;;;28.27;21.73;;;14.20;1.00;;;;;;4973630;28;20073;-38
2022/03/28 03:34:14;;;;;;;27.13;20.92;;;14.20;1.00;;;;;;4975937;28;20047;-39
2022/03/28 03:36:40;;;;;;;30.83;20.33;;;14.20;1.00;;;;;;4975248;28;20093;-39
2022/03/28 03:39:06;;;;;;;25.50;20.73;;;14.20;1.00;;;;;;4976015;28;20034;-39
2022/03/28 03:48:40;;;;;;;28.15;20.45;;;14.10;1.00;;;;;;4975163;28;20121;-38
2022/03/28 03:51:06;;;;;;;29.35;20.15;;;14.10;1.00;;;;;;4975909;28;20031;-38
2022/03/28 03:53:32;;;;;;;29.48;22.10;;;14.00;1.00;;;;;;4975062;28;20045;-40
2022/03/28 03:55:59;;;;;;;30.48;21.23;;;14.10;1.10;;;;;;4975989;28;20059;-39
2022/03/28 03:58:25;;;;;;;32.60;23.20;;;14.00;1.00;;;;;;4972807;28;20441;-39
2022/03/28 04:00:51;;;;;;;34.97;23.98;;;14.10;1.00;;;;;;4974255;28;20465;-39
2022/03/28 04:03:17;;;;;;;37.38;26.33;;;14.00;1.10;;;;;;4973115;28;20031;-39
2022/03/28 04:05:43;;;;;;;35.85;25.63;;;14.00;2.00;;;;;;4975496;28;20437;-39
2022/03/28 04:08:08;;;;;;;38.53;26.67;;;14.00;2.10;;;;;;4973738;28;20432;-39
2022/03/28 04:10:35;;;;;;;38.50;26.13;;;13.90;2.40;;;;;;4955776;28;20084;-39
2022/03/28 04:13:02;;;;;;;35.03;26.10;;;13.90;3.10;;;;;;4974786;28;20034;-39
2022/03/28 04:15:28;;;;;;;37.30;27.23;;;13.80;3.80;;;;;;4975452;28;20057;-39
2022/03/28 04:17:54;;;;;;;37.15;26.92;;;13.90;3.70;;;;;;4974743;28;20031;-39
2022/03/28 04:20:20;;;;;;;35.33;25.10;;;13.90;3.30;;;;;;4974422;28;20431;-39
2022/03/28 04:22:46;;;;;;;35.78;25.80;;;13.70;3.70;;;;;;4974664;28;20023;-39
2022/03/28 04:25:13;;;;;;;34.25;24.85;;;13.60;3.70;;;;;;4973877;28;20392;-39
2022/03/28 04:27:40;;;;;;;32.95;25.20;;;13.70;4.20;;;;;;4973261;28;20034;-39
2022/03/28 04:30:08;;;;;;;31.80;23.65;;;13.60;4.50;;;;;;4975160;28;20027;-38
2022/03/28 04:32:34;;;;;;;35.72;24.65;;;13.60;4.80;;;;;;4974354;28;20452;-38
2022/03/28 04:35:01;;;;;;;32.20;24.52;;;13.70;5.10;;;;;;4974313;28;20121;-38
2022/03/28 04:37:27;;;;;;;32.65;25.27;;;13.80;4.00;;;;;;4974222;28;20490;-38
2022/03/28 04:39:52;;;;;;;35.10;25.10;;;13.80;4.00;;;;;;4974998;28;20425;-38
2022/03/28 04:42:18;;;;;;;36.85;24.88;;;13.60;4.90;;;;;;4973094;28;20037;-38
2022/03/28 04:44:44;;;;;;;33.67;24.50;;;13.80;4.80;;;;;;4974899;28;20027;-38
2022/03/28 04:47:09;;;;;;;37.17;25.67;;;13.80;5.10;;;;;;4974000;28;20078;-38
2022/03/28 04:49:35;;;;;;;35.40;25.80;;;13.80;4.80;;;;;;4974585;28;20093;-38
2022/03/28 04:52:01;;;;;;;42.08;26.33;;;13.70;5.20;;;;;;4957214;28;20019;-38
2022/03/28 04:54:27;;;;;;;40.05;25.63;;;13.80;4.50;;;;;;4973841;28;20038;-38
2022/03/28 04:56:53;;;;;;;38.97;27.38;;;13.70;5.30;;;;;;4974664;28;20466;-38
2022/03/28 04:59:18;;;;;;;35.67;27.30;;;13.70;5.30;;;;;;4973782;28;20546;-38
2022/03/28 05:01:44;;;;;;;46.70;27.10;;;13.70;5.50;;;;;;4974807;28;20058;-38
2022/03/28 05:04:10;;;;;;;46.67;28.45;;;13.70;5.60;;;;;;4973129;28;20039;-38
2022/03/28 05:06:35;;;;;;;41.10;27.77;;;13.70;5.70;;;;;;4973659;28;20110;-38
2022/03/28 05:09:01;;;;;;;41.35;27.70;;;13.70;5.80;;;;;;4973645;28;20047;-38
2022/03/28 05:11:28;;;;;;;40.50;27.95;;;13.60;6.00;;;;;;4974136;28;20037;-38
2022/03/28 05:13:53;;;;;;;40.15;25.90;;;13.50;6.20;;;;;;4973435;28;20031;-38
2022/03/28 05:16:19;;;;;;;43.95;27.38;;;13.60;6.10;;;;;;4972850;28;20023;-38
2022/03/28 05:18:45;;;;;;;38.58;27.08;;;13.50;6.60;;;;;;4973507;28;20038;-38
2022/03/28 05:21:10;;;;;;;42.65;27.27;;;13.60;6.60;;;;;;4974190;28;20031;-38
2022/03/28 05:23:36;;;;;;;38.08;27.08;;;13.50;7.20;;;;;;4973284;28;20496;-38
2022/03/28 05:26:02;;;;;;;36.33;25.27;;;13.60;6.40;;;;;;4974183;28;20030;-38
2022/03/28 05:28:28;;;;;;;37.97;26.60;;;13.60;6.40;;;;;;4973351;28;20051;-38
2022/03/28 05:30:54;;;;;;;41.42;27.42;;;13.60;7.00;;;;;;4973947;28;20037;-38
2022/03/28 05:33:21;;;;;;;36.55;25.20;;;13.60;6.90;;;;;;4971925;28;20057;-39
2022/03/28 05:35:46;;;;;;;42.10;26.10;;;13.50;7.20;;;;;;4973842;28;20033;-38
2022/03/28 05:38:12;;;;;;;38.03;26.33;;;13.60;6.90;;;;;;4973334;28;20023;-38
2022/03/28 05:40:38;;;;;;;40.67;24.65;;;13.60;6.20;;;;;;4974323;28;20034;-39
2022/03/28 05:43:04;;;;;;;36.97;24.33;;;13.60;6.20;;;;;;4973130;28;20472;-38
2022/03/28 05:45:30;;;;;;;37.33;25.27;;;13.60;6.60;;;;;;4973816;28;20423;-38
2022/03/28 05:47:56;;;;;;;32.70;23.45;;;13.60;6.00;;;;;;4972845;28;20041;-38
2022/03/28 05:50:22;;;;;;;35.00;22.58;;;13.50;6.40;;;;;;4973640;28;20481;-38
2022/03/28 05:52:48;;;;;;;35.85;24.08;;;13.50;6.70;;;;;;4972692;28;20051;-38
2022/03/28 05:55:14;;;;;;;37.33;23.63;;;13.70;5.30;;;;;;4973848;28;20038;-38
2022/03/28 05:57:40;;;;;;;35.20;23.40;;;13.70;5.20;;;;;;4970957;28;20050;-39
2022/03/28 06:00:09;;;;;;;32.85;23.40;;;13.70;4.40;;;;;;4973734;28;20112;-39
2022/03/28 06:02:35;;;;;;;34.97;23.38;;;13.70;3.60;;;;;;4972021;28;20388;-38
2022/03/28 06:05:01;;;;;;;32.65;22.90;;;13.80;3.80;;;;;;4973707;28;20031;-38
2022/03/28 06:07:26;;;;;;;33.03;23.30;;;13.80;3.50;;;;;;4973029;28;20022;-38
2022/03/28 06:09:52;;;;;;;34.55;23.83;;;13.80;2.70;;;;;;4973105;28;20522;-38
2022/03/28 06:12:18;;;;;;;33.58;23.50;;;13.70;1.00;;;;;;4973544;28;20027;-38
2022/03/28 06:14:43;;;;;;;30.25;22.00;;;13.70;2.30;;;;;;4971216;28;20034;-39
2022/03/28 06:17:11;;;;;;;32.33;23.60;;;13.70;3.00;;;;;;4971559;28;20027;-38
2022/03/28 06:19:37;;;;;;;29.25;22.35;;;13.80;1.70;;;;;;4971244;28;20105;-38
2022/03/28 06:22:03;;;;;;;35.33;23.08;;;13.80;1.20;;;;;;4972551;28;20046;-39
2022/03/28 06:24:29;;;;;;;36.25;23.67;;;13.80;1.60;;;;;;4972019;28;20484;-38
2022/03/28 06:26:54;;;;;;;32.60;23.63;;;13.80;1.00;;;;;;4973202;28;20123;-38
2022/03/28 06:29:20;;;;;;;32.75;22.27;;;13.80;1.30;;;;;;4972382;28;20038;-38
2022/03/28 06:31:46;;;;;;;32.80;22.42;;;13.90;1.00;;;;;;4972499;28;20110;-38
2022/03/28 06:34:12;;;;;;;34.67;22.88;;;13.80;1.90;;;;;;4970950;28;20074;-38
2022/03/28 06:36:43;;;;;;;29.80;22.27;;;13.90;1.40;;;;;;4973006;28;20054;-39
2022/03/28 06:39:09;;;;;;;35.17;22.50;;;14.00;1.00;;;;;;4971702;28;20067;-39
2022/03/28 06:41:34;;;;;;;33.55;22.95;;;14.00;1.00;;;;;;4973324;28;20022;-39
2022/03/28 06:44:00;;;;;;;29.63;21.92;;;14.00;1.00;;;;;;4972136;28;20181;-39
2022/03/28 06:46:25;;;;;;;35.28;23.15;;;14.00;2.00;;;;;;4973027;28;20484;-39
2022/03/28 06:48:54;;;;;;;37.28;24.20;;;14.10;1.10;;;;;;4972135;28;20042;-39
2022/03/28 06:51:20;;;;;;;34.88;25.08;;;14.10;1.00;;;;;;4974864;28;20023;-39
2022/03/28 06:53:48;;;;;;;35.75;25.27;;;14.10;1.00;;;;;;4976373;28;20038;-39
2022/03/28 06:56:14;;;;;;;32.72;25.33;;;14.10;1.00;;;;;;4975427;28;20036;-39
2022/03/28 06:58:39;;;;;;;40.60;26.98;;;14.20;1.00;;;;;;4976376;28;20030;-39
2022/03/28 07:01:05;;;;;;;40.05;26.35;;;14.20;1.00;;;;;;4976091;28;20038;-39
2022/03/28 07:03:32;;;;;;;36.33;26.75;;;14.30;1.00;;;;;;4976013;28;20162;-39
2022/03/28 07:05:58;;;;;;;39.25;25.95;;;14.30;1.00;;;;;;4976635;28;20018;-38
2022/03/28 07:08:23;;;;;;;39.42;26.80;;;14.40;1.00;;;;;;4975533;28;20034;-38
2022/03/28 07:10:49;;;;;;;36.63;25.52;;;14.40;1.00;;;;;;4975157;28;20073;-39
2022/03/28 07:13:15;;;;;;;35.80;25.20;;;14.40;1.70;;;;;;4975461;28;20047;-39
2022/03/28 07:15:40;;;;;;;35.35;25.98;;;14.40;1.30;;;;;;4976452;28;20476;-39
2022/03/28 07:18:08;;;;;;;39.92;28.33;;;14.50;1.00;;;;;;4975719;28;20141;-39
2022/03/28 07:20:34;;;;;;;39.50;28.48;;;14.50;1.00;;;;;;4976325;28;20029;-39
2022/03/28 07:23:00;;;;;;;47.58;27.95;;;14.50;1.00;;;;;;4975422;28;20027;-39
2022/03/28 07:25:27;;;;;;;40.75;27.95;;;14.50;1.00;;;;;;4976299;28;20078;-39
2022/03/28 07:27:54;;;;;;;40.15;28.80;;;14.60;1.00;;;;;;4975311;28;20029;-39
2022/03/28 07:30:20;;;;;;;43.70;29.48;;;14.60;1.00;;;;;;4976235;28;20031;-39
2022/03/28 07:32:47;;;;;;;44.33;27.95;;;14.70;1.00;;;;;;4975330;28;20022;-38
2022/03/28 07:35:14;;;;;;;42.83;30.00;;;14.70;1.00;;;;;;4975978;28;20035;-38
2022/03/28 07:37:40;;;;;;;56.42;38.13;;;14.70;1.00;;;;;;4976099;28;20026;-39
2022/03/28 07:40:08;;;;;;;41.22;28.30;;;14.80;1.00;;;;;;4975198;28;20110;-38
2022/03/28 07:42:34;;;;;;;41.20;30.08;;;14.80;1.00;;;;;;4976225;28;20038;-38
2022/03/28 07:45:02;;;;;;;44.08;28.75;;;14.80;1.00;;;;;;4975408;28;20080;-38
2022/03/28 07:47:28;;;;;;;42.47;28.33;;;14.90;1.00;;;;;;4975904;28;20034;-38
2022/03/28 07:49:55;;;;;;;44.80;29.90;;;14.90;1.00;;;;;;4974886;28;20483;-39
2022/03/28 07:52:21;;;;;;;43.92;28.55;;;15.00;1.00;;;;;;4976049;28;20034;-39
2022/03/28 07:54:48;;;;;;;41.85;28.10;;;15.00;1.00;;;;;;4973910;28;20355;-39
2022/03/28 07:57:18;;;;;;;45.10;27.75;;;15.00;1.00;;;;;;4975051;28;20085;-39
2022/03/28 07:59:48;;;;;;;46.58;30.38;;;15.00;1.00;;;;;;4975080;28;20030;-38
2022/03/28 08:02:15;;;;;;;43.28;28.95;;;15.10;1.00;;;;;;4974521;28;20080;-38
2022/03/28 08:04:43;;;;;;;49.22;28.20;;;15.10;1.00;;;;;;4973969;28;20046;-39
2022/03/28 08:07:10;;;;;;;42.95;28.88;;;15.20;1.00;;;;;;4975688;28;20050;-39
2022/03/28 08:09:36;;;;;;;47.05;28.10;;;15.20;1.00;;;;;;4974626;28;20038;-38
2022/03/28 08:12:03;;;;;;;43.97;29.45;;;15.30;1.00;;;;;;4973467;28;20480;-39
2022/03/28 08:14:29;;;;;;;47.58;31.27;;;15.40;1.00;;;;;;4974736;28;20081;-39
2022/03/28 08:16:55;;;;;;;54.20;34.53;;;15.40;1.00;;;;;;4975638;28;20031;-38
2022/03/28 08:19:22;;;;;;;51.97;34.47;;;15.40;1.00;;;;;;4974492;28;20096;-38
2022/03/28 08:21:48;;;;;;;59.95;38.08;;;15.50;1.00;;;;;;4975585;28;20023;-39
2022/03/28 08:24:13;;;;;;;58.25;38.88;;;15.60;1.00;;;;;;4972927;28;20022;-38
2022/03/28 08:26:39;;;;;;;57.17;38.65;;;15.50;1.00;;;;;;4974541;28;20107;-39
2022/03/28 08:29:05;;;;;;;54.13;36.97;;;15.60;1.00;;;;;;4973170;28;20039;-38
2022/03/28 08:31:32;;;;;;;58.88;38.38;;;15.60;1.00;;;;;;4957882;28;20527;-39
2022/03/28 08:33:57;;;;;;;57.88;38.03;;;15.70;1.00;;;;;;4973485;28;20113;-38
2022/03/28 08:36:23;;;;;;;60.05;38.00;;;15.80;1.00;;;;;;4975336;28;20019;-38
2022/03/28 08:38:49;;;;;;;59.25;38.65;;;15.80;1.00;;;;;;4974258;28;20027;-39
2022/03/28 08:41:18;;;;;;;57.83;39.95;;;15.80;1.00;;;;;;4975116;28;20037;-39
2022/03/28 08:43:43;;;;;;;59.72;40.45;;;16.00;1.00;;;;;;4974149;28;20030;-39
2022/03/28 08:46:10;;;;;;;54.05;39.53;;;16.00;1.00;;;;;;4957535;28;20034;-38
2022/03/28 08:48:40;;;;;;;56.40;40.42;;;15.90;1.00;;;;;;4974023;28;20149;-38
2022/03/28 08:51:08;;;;;;;56.55;39.22;;;15.90;1.00;;;;;;4974853;28;20157;-38
2022/03/28 08:53:35;;;;;;;60.78;39.03;;;16.00;1.00;;;;;;4972583;28;20499;-38
2022/03/28 08:56:01;;;;;;;57.83;37.67;;;16.10;1.00;;;;;;4972077;28;20113;-38
2022/03/28 08:58:27;;;;;;;51.60;36.85;;;16.20;1.00;;;;;;4967707;28;20086;-39
2022/03/28 09:00:53;;;;;;;53.22;37.08;;;16.20;1.00;;;;;;4967276;28;20460;-39
2022/03/28 09:03:18;;;;;;;60.53;37.80;;;16.20;1.00;;;;;;4967892;28;20396;-39
2022/03/28 09:05:49;;;;;;;54.85;38.05;;;16.20;1.00;;;;;;4967404;28;20038;-39
2022/03/28 09:08:15;;;;;;;50.13;37.67;;;16.40;1.00;;;;;;4969218;28;20039;-39
2022/03/28 09:10:47;;;;;;;53.88;38.25;;;16.40;1.00;;;;;;4950732;28;20041;-39
2022/03/28 09:13:19;;;;;;;59.22;38.10;;;16.40;1.00;;;;;;4968013;28;20026;-39
2022/03/28 09:15:52;;;;;;;59.03;39.15;;;16.50;1.00;;;;;;4970974;28;20102;-39
2022/03/28 09:18:20;;;;;;;57.72;37.17;;;16.50;1.00;;;;;;4970553;28;20181;-39
2022/03/28 09:21:05;;;;;;;51.03;37.17;;;16.60;1.00;;;;;;4972428;28;20115;-39
2022/03/28 09:23:33;;;;;;;55.55;39.10;;;16.70;1.00;;;;;;4970745;28;20034;-39
2022/03/28 09:25:59;;;;;;;56.97;40.65;;;16.70;1.00;;;;;;4969962;28;20035;-39
2022/03/28 09:28:46;;;;;;;54.05;38.53;;;16.80;1.00;;;;;;4972581;28;20090;-40
2022/03/28 09:31:34;;;;;;;59.45;38.83;;;16.90;1.00;;;;;;4971757;28;20019;-39
2022/03/28 09:34:11;;;;;;;53.03;38.53;;;16.90;1.00;;;;;;4939273;28;20114;-39
2022/03/28 09:36:44;;;;;;;60.08;40.40;;;17.10;1.00;;;;;;4933491;29;20047;-38
2022/03/28 09:39:21;;;;;;;57.80;41.17;;;17.00;1.00;;;;;;4932467;29;20107;-39
2022/03/28 09:42:06;;;;;;;61.78;43.13;;;17.10;1.00;;;;;;4934219;29;20068;-39
2022/03/28 09:44:38;;;;;;;64.85;43.10;;;17.20;1.00;;;;;;4930701;29;20051;-39
2022/03/28 09:47:09;;;;;;;59.05;41.83;;;17.30;1.00;;;;;;4932908;29;20024;-40
2022/03/28 09:49:36;;;;;;;59.80;41.05;;;17.40;1.00;;;;;;4933899;29;20044;-40
2022/03/28 09:52:13;;;;;;;55.22;41.05;;;17.40;1.00;;;;;;4932328;29;20031;-39
2022/03/28 09:54:51;;;;;;;65.63;40.92;;;17.50;1.00;;;;;;4934786;29;20032;-38
2022/03/28 09:57:23;;;;;;;56.05;40.53;;;17.50;1.00;;;;;;4934380;29;20035;-39
2022/03/28 09:59:49;;;;;;;55.58;40.30;;;17.60;1.00;;;;;;4933867;29;20023;-40
2022/03/28 10:02:26;;;;;;;66.97;41.85;;;17.60;1.00;;;;;;4934895;29;20046;-39
2022/03/28 10:04:53;;;;;;;57.88;40.90;;;17.80;1.00;;;;;;4934194;29;20051;-38
2022/03/28 10:07:20;;;;;;;58.20;41.13;;;17.80;1.00;;;;;;4934524;29;20039;-38
2022/03/28 10:09:46;;;;;;;57.88;41.33;;;17.80;1.00;;;;;;4933935;29;20449;-38
2022/03/28 10:12:13;;;;;;;57.10;39.83;;;17.90;1.00;;;;;;4934731;29;20035;-39
2022/03/28 10:14:39;;;;;;;56.90;41.05;;;18.00;1.00;;;;;;4934213;29;20042;-38
2022/03/28 10:17:06;;;;;;;59.72;41.10;;;17.80;1.00;;;;;;4934926;29;20102;-38
2022/03/28 10:19:34;;;;;;;54.78;40.92;;;18.00;1.00;;;;;;4933653;29;20335;-39
2022/03/28 10:22:05;;;;;;;57.92;40.83;;;18.10;1.00;;;;;;4934116;29;20035;-38
2022/03/28 10:24:34;;;;;;;57.35;39.92;;;18.10;1.00;;;;;;4931310;29;20513;-39
2022/03/28 10:27:02;;;;;;;58.85;40.65;;;18.10;1.00;;;;;;4930092;29;20027;-39
2022/03/28 10:29:39;;;;;;;51.75;38.40;;;18.20;1.00;;;;;;4932004;29;20140;-39
2022/03/28 10:32:17;;;;;;;56.05;40.97;;;18.40;1.00;;;;;;4932405;29;20039;-39
2022/03/28 10:34:44;;;;;;;57.75;39.08;;;18.40;1.00;;;;;;4963108;28;20059;-39
2022/03/28 10:37:36;;;;;;;50.80;38.50;;;18.40;1.00;;;;;;4970185;28;20038;-39
2022/03/28 10:40:23;;;;;;;49.70;36.88;;;18.50;1.00;;;;;;4970271;28;20113;-39
2022/03/28 10:43:12;;;;;;;51.63;38.08;;;18.70;1.00;;;;;;4971005;28;20097;-39
2022/03/28 10:45:50;;;;;;;56.80;38.33;;;18.60;1.00;;;;;;4969686;28;20037;-38
2022/03/28 10:48:31;;;;;;;54.97;37.92;;;18.50;1.00;;;;;;4968166;28;20031;-38
2022/03/28 10:51:32;;;;;;;55.17;37.63;;;18.60;1.00;;;;;;4967704;28;20041;-38
2022/03/28 10:53:59;;;;;;;50.20;36.63;;;18.80;1.00;;;;;;4949550;28;20433;-38
2022/03/28 10:56:31;;;;;;;43.75;32.10;;;18.90;1.00;;;;;;4970485;28;20045;-38
2022/03/28 10:59:08;;;;;;;53.33;34.53;;;18.90;1.00;;;;;;4972198;28;20027;-39
2022/03/28 11:01:35;;;;;;;55.42;37.90;;;18.90;1.00;;;;;;4972127;28;20030;-38
2022/03/28 11:04:15;;;;;;;51.03;36.53;;;19.10;1.00;;;;;;4971840;28;20042;-39
2022/03/28 11:07:07;;;;;;;56.05;38.28;;;19.20;1.00;;;;;;4971520;28;20034;-38
2022/03/28 11:09:54;;;;;;;54.05;37.30;;;;;;;;;;4971439;28;20047;-39
2022/03/28 11:12:34;;;;;;;47.28;34.83;;;19.40;1.00;;;;;;4972738;28;20026;-39
2022/03/28 11:15:11;;;;;;;47.17;35.08;;;19.60;1.00;;;;;;4972019;28;20053;-39
2022/03/28 11:17:51;;;;;;;49.88;36.65;;;19.70;1.00;;;;;;4971983;28;20114;-39
2022/03/28 11:20:23;;;;;;;46.90;35.20;;;19.70;1.00;;;;;;4972100;28;20106;-39
2022/03/28 11:23:09;;;;;;;50.63;37.22;;;19.80;1.00;;;;;;4972800;28;20031;-39
2022/03/28 11:25:58;;;;;;;43.42;33.70;;;19.90;1.00;;;;;;4972008;28;20035;-39
2022/03/28 11:28:26;;;;;;;47.25;33.92;;;20.00;1.00;;;;;;4971173;28;20041;-39
2022/03/28 11:30:55;;;;;;;47.13;33.03;;;19.90;1.00;;;;;;4971663;28;20086;-39
2022/03/28 11:33:37;;;;;;;48.22;33.90;;;20.10;1.00;;;;;;4972222;28;20110;-38
2022/03/28 11:36:14;;;;;;;44.72;32.65;;;20.20;1.00;;;;;;4971869;28;20073;-39
2022/03/28 11:38:54;;;;;;;44.75;30.92;;;20.20;1.00;;;;;;4976314;28;20023;-39
2022/03/28 11:41:22;;;;;;;42.40;32.85;;;20.10;1.00;;;;;;4974548;28;20142;-39
2022/03/28 11:43:49;;;;;;;44.58;31.85;;;20.20;1.00;;;;;;4973934;28;20085;-39
2022/03/28 11:46:27;;;;;;;43.05;28.35;;;20.20;1.00;;;;;;4973754;28;20488;-39
2022/03/28 11:49:10;;;;;;;39.40;28.55;;;20.30;1.00;;;;;;4972547;28;20038;-39
2022/03/28 11:51:39;;;;;;;43.37;29.87;;;20.30;1.00;;;;;;4975336;28;20023;-39
2022/03/28 11:54:11;;;;;;;39.42;29.73;;;20.70;1.00;;;;;;4974463;28;20370;-38
2022/03/28 11:59:39;;;;;;;42.40;31.02;;;21.00;1.00;;;;;;4938936;28;20509;-39
2022/03/28 12:02:08;;;;;;;40.97;31.58;;;20.90;1.00;;;;;;4975714;28;20130;-39
2022/03/28 12:04:43;;;;;;;38.63;27.95;;;21.10;1.00;;;;;;4974900;28;20026;-39
2022/03/28 12:07:08;;;;;;;36.40;26.15;;;21.20;1.00;;;;;;4975231;28;20109;-39
2022/03/28 12:09:41;;;;;;;36.15;27.00;;;21.30;1.00;;;;;;4974590;28;20701;-39
2022/03/28 12:12:08;;;;;;;34.88;27.02;;;21.40;1.00;;;;;;4975584;28;20448;-39
2022/03/28 12:14:34;;;;;;;40.65;28.52;;;21.20;1.00;;;;;;4974706;28;20035;-39
2022/03/28 12:17:00;;;;;;;38.85;28.98;;;21.40;1.00;;;;;;4974732;28;20046;-39
2022/03/28 12:19:29;;;;;;;37.47;29.90;;;21.50;1.00;;;;;;4974956;28;20037;-39
2022/03/28 12:21:57;;;;;;;30.95;23.88;;;21.50;1.00;;;;;;4975344;28;20077;-39
2022/03/28 12:24:24;;;;;;;34.45;25.60;;;21.90;1.00;;;;;;4974871;28;20031;-39
2022/03/28 12:26:53;;;;;;;35.60;27.95;;;21.80;1.00;;;;;;4975444;28;20027;-38
2022/03/28 12:29:19;;;;;;;37.38;28.88;;;21.90;1.00;;;;;;4974627;28;20464;-39
2022/03/28 12:31:47;;;;;;;35.45;25.98;;;22.40;1.00;;;;;;4975039;28;20038;-38
2022/03/28 12:34:14;;;;;;;32.55;24.98;;;;;;;;;;4974187;28;20122;-39
2022/03/28 12:36:40;;;;;;;29.73;24.25;;;28.80;1.00;;;;;;4974340;28;20031;-38
2022/03/28 12:39:09;;;;;;;30.63;24.33;;;33.00;1.00;;;;;;4973310;28;20045;-39
2022/03/28 12:41:44;;;;;;;29.92;24.08;;;34.40;1.00;;;;;;4978617;28;20053;-38
2022/03/28 12:44:13;;;;;;;29.02;25.00;;;35.60;1.00;;;;;;4975117;28;20027;-39
2022/03/28 12:46:39;;;;;;;24.25;20.60;;;34.40;1.00;;;;;;4974071;28;20038;-40
2022/03/28 12:49:13;;;;;;;19.48;17.38;;;35.80;1.00;;;;;;4973915;28;20047;-41
2022/03/28 12:51:40;;;;;;;;;;;37.50;1.00;;;;;;4972732;28;20034;-38
2022/03/28 12:54:21;;;;;;;22.35;17.85;;;37.70;1.00;;;;;;4971657;28;19910;-40
2022/03/28 12:56:49;;;;;;;19.30;17.17;;;;;;;;;;4974092;28;20519;-39